createdAt,value
2023-09-04T00:01:08.666Z,7
2023-09-04T00:06:10.145Z,8
2023-09-04T00:11:11.648Z,7
2023-09-04T00:16:13.259Z,10
2023-09-04T00:21:14.787Z,8
2023-09-04T00:26:16.192Z,7
2023-09-04T00:31:17.694Z,11
2023-09-04T00:36:19.236Z,8
2023-09-04T00:41:20.607Z,7
2023-09-04T00:46:22.033Z,9
2023-09-04T00:51:23.746Z,7
2023-09-04T00:56:25.183Z,9
2023-09-04T01:01:26.641Z,9
2023-09-04T01:06:28.022Z,10
2023-09-04T01:11:29.471Z,8
2023-09-04T01:16:31.014Z,7
2023-09-04T01:21:32.478Z,10
2023-09-04T01:26:33.872Z,9
2023-09-04T01:31:35.246Z,8
2023-09-04T01:36:36.684Z,9
2023-09-04T01:41:38.581Z,8
2023-09-04T01:46:40.362Z,7
2023-09-04T01:51:41.749Z,8
2023-09-04T01:56:43.117Z,8
2023-09-04T02:01:44.565Z,11
2023-09-04T02:06:47.011Z,7
2023-09-04T02:11:48.466Z,9
2023-09-04T02:16:49.858Z,9
2023-09-04T02:21:51.287Z,10
2023-09-04T02:26:52.752Z,8
2023-09-04T02:31:54.215Z,9
2023-09-04T02:36:55.684Z,9
2023-09-04T02:41:57.063Z,10
2023-09-04T02:46:58.465Z,11
2023-09-04T02:51:59.928Z,11
2023-09-04T02:57:01.541Z,9
2023-09-04T03:02:02.972Z,11
2023-09-04T03:07:04.439Z,9
2023-09-04T03:12:05.913Z,11
2023-09-04T03:17:07.328Z,9
2023-09-04T03:22:08.717Z,11
2023-09-04T03:27:10.262Z,12
2023-09-04T03:32:11.738Z,11
2023-09-04T03:37:13.252Z,12
2023-09-04T03:42:14.695Z,11
2023-09-04T03:47:16.094Z,10
2023-09-04T03:52:17.474Z,10
2023-09-04T03:57:18.986Z,11
2023-09-04T04:02:20.440Z,11
2023-09-04T04:07:21.873Z,11
2023-09-04T04:12:23.389Z,13
2023-09-04T04:17:24.873Z,13
2023-09-04T04:22:26.252Z,10
2023-09-04T04:27:27.758Z,11
2023-09-04T04:32:29.215Z,14
2023-09-04T04:37:30.685Z,12
2023-09-04T04:42:32.180Z,11
2023-09-04T04:47:33.584Z,8
2023-09-04T04:52:34.974Z,11
2023-09-04T04:57:36.489Z,9
2023-09-04T05:02:37.978Z,10
2023-09-04T05:07:39.388Z,8
2023-09-04T05:12:41.025Z,8
2023-09-04T05:17:42.541Z,9
2023-09-04T05:22:44.287Z,9
2023-09-04T05:27:45.683Z,8
2023-09-04T05:32:47.118Z,10
2023-09-04T05:37:48.699Z,8
2023-09-04T05:42:50.132Z,10
2023-09-04T05:47:51.650Z,7
2023-09-04T05:52:53.224Z,7
2023-09-04T05:57:54.583Z,9
2023-09-04T06:02:56.068Z,8
2023-09-04T06:07:57.634Z,8
2023-09-04T06:12:59.105Z,9
2023-09-04T06:18:00.718Z,8
2023-09-04T06:23:02.207Z,5
2023-09-04T06:28:03.697Z,8
2023-09-04T06:33:05.179Z,9
2023-09-04T06:38:06.606Z,8
2023-09-04T06:43:08.000Z,9
2023-09-04T06:48:09.659Z,7
2023-09-04T06:53:11.163Z,7
2023-09-04T06:58:12.664Z,7
2023-09-04T07:03:14.199Z,8
2023-09-04T07:08:15.587Z,9
2023-09-04T07:13:17.033Z,6
2023-09-04T07:18:18.583Z,7
2023-09-04T07:23:21.946Z,8
2023-09-04T07:28:31.452Z,7
2023-09-04T07:33:33.084Z,8
2023-09-04T07:38:34.620Z,7
2023-09-04T07:43:36.203Z,9
2023-09-04T07:48:37.553Z,7
2023-09-04T07:53:39.038Z,8
2023-09-04T07:58:40.579Z,7
2023-09-04T08:03:42.006Z,6
2023-09-04T08:08:43.381Z,7
2023-09-04T08:13:44.889Z,7
2023-09-04T08:18:46.381Z,7
2023-09-04T08:23:47.819Z,7
2023-09-04T08:28:49.221Z,5
2023-09-04T08:33:50.721Z,7
2023-09-04T08:38:52.164Z,6
2023-09-04T08:43:53.596Z,8
2023-09-04T08:48:54.960Z,7
2023-09-04T08:53:58.376Z,7
2023-09-04T08:59:02.130Z,7
2023-09-04T09:04:03.751Z,6
2023-09-04T09:09:05.241Z,6
2023-09-04T09:14:06.848Z,7
2023-09-04T09:19:08.449Z,8
2023-09-04T09:24:09.841Z,8
2023-09-04T09:29:11.376Z,8
2023-09-04T09:34:12.836Z,8
2023-09-04T09:39:14.337Z,8
2023-09-04T09:44:15.760Z,9
2023-09-04T09:49:17.203Z,7
2023-09-04T09:54:18.719Z,6
2023-09-04T09:59:20.123Z,5
2023-09-04T10:04:21.552Z,8
2023-09-04T10:09:22.941Z,7
2023-09-04T10:14:24.375Z,8
2023-09-04T10:19:25.765Z,7
2023-09-04T10:24:27.143Z,9
2023-09-04T10:29:28.919Z,8
2023-09-04T10:34:30.301Z,8
2023-09-04T10:39:31.793Z,10
2023-09-04T10:44:33.277Z,8
2023-09-04T10:49:34.664Z,8
2023-09-04T10:54:36.043Z,7
2023-09-04T10:59:37.836Z,8
2023-09-04T11:04:39.197Z,7
2023-09-04T11:09:40.646Z,9
2023-09-04T11:14:42.043Z,7
2023-09-04T11:19:43.639Z,8
2023-09-04T11:24:45.033Z,7
2023-09-04T11:29:46.385Z,8
2023-09-04T11:34:47.901Z,9
2023-09-04T11:39:49.580Z,7
2023-09-04T11:44:51.004Z,7
2023-09-04T11:49:52.360Z,8
2023-09-04T11:54:53.768Z,8
2023-09-04T11:59:55.304Z,7
2023-09-04T12:04:56.894Z,9
2023-09-04T12:09:58.257Z,8
2023-09-04T12:14:59.678Z,7
2023-09-04T12:20:01.090Z,8
2023-09-04T12:25:02.541Z,10
2023-09-04T12:30:03.950Z,8
2023-09-04T12:35:05.474Z,9
2023-09-04T12:40:06.985Z,10
2023-09-04T12:45:08.478Z,11
2023-09-04T12:50:09.970Z,11
2023-09-04T12:55:11.379Z,11
2023-09-04T13:00:12.788Z,11
2023-09-04T13:05:14.188Z,10
2023-09-04T13:10:15.708Z,10
2023-09-04T13:15:17.109Z,27
2023-09-04T13:20:18.484Z,16
2023-09-04T13:25:20.097Z,29
2023-09-04T13:30:21.649Z,28
2023-09-04T13:35:23.124Z,55
2023-09-04T13:40:24.736Z,33
2023-09-04T13:45:26.148Z,40
2023-09-04T13:50:27.647Z,25
2023-09-04T13:55:29.282Z,21
2023-09-04T14:00:30.867Z,11
2023-09-04T14:05:32.309Z,18
2023-09-04T14:10:33.941Z,16
2023-09-04T14:15:37.179Z,20
2023-09-04T14:20:39.884Z,11
2023-09-04T14:25:41.263Z,11
2023-09-04T14:30:42.645Z,11
2023-09-04T14:35:44.057Z,11
2023-09-04T14:40:45.610Z,10
2023-09-04T14:45:56.604Z,10
2023-09-04T14:51:09.521Z,11
2023-09-04T14:56:10.890Z,12
2023-09-04T15:01:12.508Z,9
2023-09-04T15:06:14.146Z,10
2023-09-04T15:11:17.056Z,11
2023-09-04T15:16:18.691Z,13
2023-09-04T15:21:20.188Z,10
2023-09-04T15:26:21.608Z,10
2023-09-04T15:31:23.143Z,12
2023-09-04T15:36:24.568Z,10
2023-09-04T15:41:25.985Z,12
2023-09-04T15:46:27.542Z,10
2023-09-04T15:51:28.959Z,11
2023-09-04T15:56:30.362Z,11
2023-09-04T16:01:31.905Z,10
2023-09-04T16:06:33.386Z,10
2023-09-04T16:11:34.901Z,14
2023-09-04T16:16:36.346Z,13
2023-09-04T16:21:38.046Z,12
2023-09-04T16:26:39.654Z,12
2023-09-04T16:31:41.169Z,8
2023-09-04T16:36:42.557Z,10
2023-09-04T16:41:43.960Z,13
2023-09-04T16:46:45.460Z,11
2023-09-04T16:51:56.056Z,10
2023-09-04T16:56:58.909Z,11
2023-09-04T17:02:00.405Z,12
2023-09-04T17:07:01.819Z,13
2023-09-04T17:12:03.376Z,14
2023-09-04T17:17:04.749Z,14
2023-09-04T17:22:06.433Z,14
2023-09-04T17:27:08.017Z,10
2023-09-04T17:32:09.693Z,10
2023-09-04T17:37:11.091Z,9
2023-09-04T17:42:12.570Z,12
2023-09-04T17:47:14.041Z,11
2023-09-04T17:52:15.531Z,14
2023-09-04T17:57:16.904Z,14
2023-09-04T18:02:18.459Z,15
2023-09-04T18:07:19.899Z,12
2023-09-04T18:12:21.350Z,13
2023-09-04T18:17:23.093Z,13
2023-09-04T18:22:24.562Z,11
2023-09-04T18:27:26.438Z,11
2023-09-04T18:32:27.847Z,13
2023-09-04T18:37:29.566Z,12
2023-09-04T18:42:31.055Z,11
2023-09-04T18:47:32.582Z,11
2023-09-04T18:52:34.180Z,12
2023-09-04T18:58:47.888Z,7
2023-09-04T19:03:49.312Z,6
2023-09-04T19:08:50.842Z,8
2023-09-04T19:13:52.406Z,6
2023-09-04T19:18:53.708Z,8
2023-09-04T19:23:55.109Z,8
2023-09-04T19:28:56.537Z,7
2023-09-04T19:33:57.921Z,7
2023-09-04T19:38:59.300Z,7
2023-09-04T19:44:00.814Z,6
2023-09-04T19:49:02.187Z,6
2023-09-04T19:54:03.617Z,6
2023-09-04T19:59:05.033Z,5
2023-09-04T20:04:06.699Z,7
2023-09-04T20:09:08.051Z,6
2023-09-04T20:14:09.449Z,7
2023-09-04T20:19:10.834Z,5
2023-09-04T20:24:12.358Z,5
2023-09-04T20:29:13.897Z,5
2023-09-04T20:34:15.383Z,6
2023-09-04T20:39:16.815Z,6
2023-09-04T20:44:18.271Z,6
2023-09-04T20:49:19.719Z,7
2023-09-04T20:54:21.184Z,6
2023-09-04T20:59:22.585Z,4
2023-09-04T21:04:24.173Z,5
2023-09-04T21:09:25.531Z,6
2023-09-04T21:14:26.975Z,6
2023-09-04T21:19:28.334Z,6
2023-09-04T21:24:29.752Z,6
2023-09-04T21:29:31.195Z,5
2023-09-04T21:34:32.665Z,6
2023-09-04T21:39:34.022Z,5
2023-09-04T21:44:35.428Z,5
2023-09-04T21:49:36.828Z,4
2023-09-04T21:54:38.405Z,6
2023-09-04T21:59:39.882Z,5
2023-09-04T22:04:41.395Z,4
2023-09-04T22:09:42.760Z,5
2023-09-04T22:14:44.283Z,4
2023-09-04T22:19:45.652Z,4
2023-09-04T22:24:47.126Z,5
2023-09-04T22:29:48.540Z,5
2023-09-04T22:34:49.931Z,3
2023-09-04T22:39:51.535Z,4
2023-09-04T22:44:52.901Z,4
2023-09-04T22:49:54.373Z,3
2023-09-04T22:54:55.763Z,4
2023-09-04T22:59:57.145Z,4
2023-09-04T23:04:58.683Z,3
2023-09-04T23:10:00.186Z,3
2023-09-04T23:15:01.592Z,2
2023-09-04T23:20:03.111Z,4
2023-09-04T23:25:04.553Z,3
2023-09-04T23:30:06.126Z,3
2023-09-04T23:35:07.544Z,4
2023-09-04T23:40:08.891Z,3
2023-09-04T23:45:10.386Z,5
2023-09-04T23:50:11.799Z,1
2023-09-04T23:55:13.255Z,4
